Terminal Aerodrome Forecast
Issued by NWS

Home | Current Version | Previous Version | Text Only | Print | Product List | Glossary On
Versions: 1 2 3 4 5 6 7 8 9 10 11 12 13 14 15 16 17 18 19 20 21
000
FTUS41 KPHI 191416 AAA
TAFMIV
TAF AMD
KMIV 191416Z 1914/2012 08014G22KT P6SM OVC250
     FM192100 09012KT P6SM SCT015 BKN120
     FM192300 09010G18KT P6SM OVC015
     FM200400 08012G20KT P6SM OVC008
     FM200600 09014G22KT 4SM -RA BR OVC008 WS020/14050KT=

USA.gov is the U.S. government's official web portal to all federal, state and local government web resources and services.